Time;durP1;ratioP1;P1;durP2;ratioP2;P2;SDS_P1;SDS_P2;PMS_P1;PMS_P2;Temp;Humidity;BMP_temperature;BMP_pressure;BME280_temperature;BME280_humidity;BME280_pressure;Samples;Min_cycle;Max_cycle;Signal;HPM_P1;HPM_P2
2023/06/21 00:00:28;;;;;;;20.15;16.48;;;;;;;19.56;100.00;100252.77;1739915;82;21028;-71
2023/06/21 00:02:59;;;;;;;20.15;16.20;;;;;;;19.57;100.00;100257.23;1740099;82;20997;-72
2023/06/21 00:05:29;;;;;;;22.00;16.60;;;;;;;19.57;100.00;100248.89;1739976;82;21068;-72
2023/06/21 00:07:57;;;;;;;20.25;17.10;;;;;;;19.58;100.00;100256.67;1739956;82;21082;-72
2023/06/21 00:10:28;;;;;;;22.45;17.85;;;;;;;19.57;100.00;100263.34;1739704;82;21072;-71
2023/06/21 00:12:57;;;;;;;21.82;16.35;;;;;;;19.55;100.00;100259.98;1713852;82;21502;-72
2023/06/21 00:15:25;;;;;;;20.32;15.75;;;;;;;19.54;100.00;100261.08;1739619;82;21020;-73
2023/06/21 00:17:54;;;;;;;22.95;17.02;;;;;;;19.50;100.00;100266.25;1739977;82;21577;-72
2023/06/21 00:20:24;;;;;;;20.50;16.60;;;;;;;19.46;100.00;100265.09;1740286;82;21009;-71
2023/06/21 00:22:55;;;;;;;20.80;16.97;;;;;;;19.45;100.00;100271.75;1739978;82;21504;-71
2023/06/21 00:25:24;;;;;;;21.02;17.35;;;;;;;19.43;100.00;100269.78;1740130;82;21444;-73
2023/06/21 00:27:53;;;;;;;22.07;17.82;;;;;;;19.43;100.00;100278.66;1740326;82;20977;-70
2023/06/21 00:30:21;;;;;;;22.42;17.17;;;;;;;19.44;100.00;100273.40;1740307;82;21525;-72
2023/06/21 00:32:52;;;;;;;20.77;17.15;;;;;;;19.44;100.00;100275.63;1740124;82;21456;-69
2023/06/21 00:35:21;;;;;;;22.35;16.60;;;;;;;19.43;100.00;100280.05;1739957;82;21036;-72
2023/06/21 00:37:50;;;;;;;22.98;18.95;;;;;;;19.43;100.00;100274.50;1740118;82;21032;-69
2023/06/21 00:40:22;;;;;;;21.35;17.30;;;;;;;19.43;100.00;100273.11;1739938;82;21032;-71
2023/06/21 00:42:50;;;;;;;21.55;17.05;;;;;;;19.45;100.00;100277.86;1739960;82;21452;-70
2023/06/21 00:45:19;;;;;;;24.75;17.65;;;;;;;19.44;100.00;100274.23;1740180;82;21056;-72
2023/06/21 00:47:49;;;;;;;20.85;17.57;;;;;;;19.43;100.00;100271.17;1741921;82;21533;-71
2023/06/21 00:50:19;;;;;;;20.23;17.32;;;;;;;19.44;100.00;100271.45;1742599;81;21068;-71
2023/06/21 00:52:49;;;;;;;21.37;16.80;;;;;;;19.45;100.00;100270.91;1742616;82;21076;-71
2023/06/21 00:55:19;;;;;;;21.75;18.05;;;;;;;19.46;100.00;100273.98;1742413;81;21041;-73
2023/06/21 00:57:49;;;;;;;24.50;17.57;;;;;;;19.47;100.00;100271.49;1742508;81;21044;-70
2023/06/21 01:00:21;;;;;;;20.68;17.50;;;;;;;19.48;100.00;100269.84;1742541;82;21050;-71
2023/06/21 01:02:51;;;;;;;22.62;18.15;;;;;;;19.50;100.00;100269.58;1742340;82;21036;-72
2023/06/21 01:05:22;;;;;;;21.10;17.05;;;;;;;19.50;100.00;100266.80;1742489;82;21534;-71
2023/06/21 01:08:27;;;;;;;23.87;17.50;;;;;;;19.52;100.00;100263.25;1715960;82;21467;-71
2023/06/21 01:11:09;;;;;;;22.15;18.00;;;;;;;19.51;100.00;100255.45;1713858;82;21518;-71
2023/06/21 01:13:49;;;;;;;25.77;18.85;;;;;;;19.52;100.00;100257.69;1742560;81;21080;-71
2023/06/21 01:16:19;;;;;;;21.97;18.23;;;;;;;19.49;100.00;100258.17;1742375;82;21048;-71
2023/06/21 01:18:48;;;;;;;25.68;18.95;;;;;;;19.48;100.00;100248.16;1715648;82;21072;-69
2023/06/21 01:21:23;;;;;;;22.65;18.62;;;;;;;19.46;100.00;100250.36;1742263;82;21047;-70
2023/06/21 01:24:18;;;;;;;22.82;18.62;;;;;;;19.46;100.00;100251.75;1742354;82;21084;-71
2023/06/21 01:27:16;;;;;;;23.12;18.62;;;;;;;19.47;100.00;100254.81;1742480;82;21028;-69
2023/06/21 01:29:49;;;;;;;24.72;19.05;;;;;;;19.47;100.00;100252.03;1742599;82;21035;-70
2023/06/21 01:32:19;;;;;;;24.00;18.65;;;;;;;19.46;100.00;100249.80;1715941;82;21040;-72
2023/06/21 01:34:48;;;;;;;24.60;19.23;;;;;;;19.46;100.00;100253.14;1742481;82;21040;-70
2023/06/21 01:37:17;;;;;;;22.48;18.80;;;;;;;19.47;100.00;100250.09;1742300;82;21502;-71
2023/06/21 01:39:48;;;;;;;22.85;18.50;;;;;;;19.48;100.00;100249.55;1742517;82;21001;-72
2023/06/21 01:42:18;;;;;;;26.12;18.98;;;;;;;19.46;100.00;100254.53;1742507;82;21087;-71
2023/06/21 01:44:47;;;;;;;26.10;19.80;;;;;;;19.48;100.00;100252.33;1742509;82;20996;-70
2023/06/21 01:47:16;;;;;;;23.80;19.37;;;;;;;19.48;100.00;100253.17;1714469;82;21052;-71
2023/06/21 01:49:46;;;;;;;24.07;19.40;;;;;;;19.47;100.00;100262.60;1740114;82;21044;-71
2023/06/21 01:52:15;;;;;;;25.50;19.70;;;;;;;19.46;100.00;100265.64;1712932;82;21060;-70
2023/06/21 01:54:46;;;;;;;22.95;19.30;;;;;;;19.48;100.00;100265.67;1740102;82;21036;-71
2023/06/21 01:57:16;;;;;;;22.93;19.05;;;;;;;19.49;100.00;100267.91;1740132;82;21017;-71
2023/06/21 01:59:46;;;;;;;23.95;20.10;;;;;;;19.49;100.00;100264.58;1739903;82;21545;-70
2023/06/21 02:02:15;;;;;;;25.97;20.08;;;;;;;19.50;100.00;100273.20;1739919;82;21033;-70
2023/06/21 02:04:44;;;;;;;24.87;20.77;;;;;;;19.50;100.00;100275.14;1739873;82;21099;-70
2023/06/21 02:07:14;;;;;;;23.98;19.57;;;;;;;19.49;100.00;100281.80;1739869;82;21529;-69
2023/06/21 02:09:46;;;;;;;24.60;20.25;;;;;;;19.48;100.00;100282.89;1740081;82;21460;-69
2023/06/21 02:12:17;;;;;;;30.20;21.15;;;;;;;19.47;100.00;100293.72;1674021;85;21533;-70
2023/06/21 02:14:45;;;;;;;25.48;19.42;;;;;;;19.45;100.00;100303.70;1672793;86;21081;-71
2023/06/21 02:17:14;;;;;;;30.62;21.52;;;;;;;19.47;100.00;100303.45;1676660;85;21195;-70
2023/06/21 02:19:43;;;;;;;28.27;21.77;;;;;;;19.47;100.00;100307.07;1676807;85;21100;-72
2023/06/21 02:22:15;;;;;;;33.48;22.13;;;;;;;19.48;100.00;100313.47;1672058;86;21077;-71
2023/06/21 02:24:43;;;;;;;28.73;22.25;;;;;;;19.46;100.00;100311.50;1672547;85;21084;-70
2023/06/21 02:27:12;;;;;;;27.82;21.60;;;;;;;19.45;100.00;100316.77;1672542;85;21534;-71
2023/06/21 02:29:42;;;;;;;27.55;21.17;;;;;;;19.45;100.00;100321.77;1672455;85;21072;-71
2023/06/21 02:32:11;;;;;;;29.95;21.90;;;;;;;19.43;100.00;100316.18;1679543;85;21021;-70
2023/06/21 02:34:40;;;;;;;30.65;21.68;;;;;;;19.42;100.00;100323.67;1672704;85;21049;-70
2023/06/21 02:37:12;;;;;;;27.42;22.25;;;;;;;19.43;100.00;100320.34;1659665;85;21497;-72
2023/06/21 02:39:43;;;;;;;25.17;21.95;;;;;;;19.42;100.00;100317.28;1672715;85;21045;-68
2023/06/21 02:42:13;;;;;;;27.73;22.45;;;;;;;19.44;100.00;100317.86;1672510;85;21045;-70
2023/06/21 02:44:43;;;;;;;31.33;22.22;;;;;;;19.44;100.00;100317.86;1676686;85;21096;-71
2023/06/21 02:47:12;;;;;;;30.37;22.35;;;;;;;19.45;100.00;100318.16;1652102;86;21120;-71
2023/06/21 02:49:41;;;;;;;29.35;23.02;;;;;;;19.45;100.00;100318.16;1659163;85;21065;-71
2023/06/21 02:52:11;;;;;;;29.10;22.37;;;;;;;19.43;100.00;100321.19;1671603;86;21057;-71
2023/06/21 02:54:40;;;;;;;31.20;23.02;;;;;;;19.42;100.00;100322.84;1671355;84;21124;-70
2023/06/21 02:57:10;;;;;;;28.83;23.10;;;;;;;19.40;100.00;100327.27;1671551;84;21057;-72
2023/06/21 02:59:42;;;;;;;28.50;23.12;;;;;;;19.41;100.00;100326.16;1671577;84;21049;-71
2023/06/21 03:02:11;;;;;;;32.65;23.62;;;;;;;19.40;100.00;100331.43;1642113;86;21049;-71
2023/06/21 03:04:41;;;;;;;30.43;23.95;;;;;;;19.43;100.00;100325.91;1671595;85;21053;-71
2023/06/21 03:07:10;;;;;;;29.67;22.70;;;;;;;19.41;100.00;100328.94;1696387;84;21041;-71
2023/06/21 03:09:39;;;;;;;27.22;22.60;;;;;;;19.39;100.00;100338.08;1696489;83;21046;-71
2023/06/21 03:12:09;;;;;;;28.95;23.47;;;;;;;19.38;100.00;100332.23;1696486;83;21086;-71
2023/06/21 03:14:39;;;;;;;31.42;23.55;;;;;;;19.38;100.00;100334.17;1696580;83;21050;-71
2023/06/21 03:17:10;;;;;;;30.30;23.50;;;;;;;19.41;100.00;100332.27;1696622;84;21082;-73
2023/06/21 03:19:41;;;;;;;32.75;23.87;;;;;;;19.41;100.00;100331.72;1690136;83;21486;-72
2023/06/21 03:22:12;;;;;;;31.55;23.40;;;;;;;19.41;100.00;100337.83;1714141;83;21085;-72
2023/06/21 03:24:45;;;;;;;32.65;24.52;;;;;;;19.41;100.00;100338.67;1713043;83;21094;-71
2023/06/21 03:40:48;;;;;;;29.27;25.20;;;;;;;19.92;100.00;100340.20;1797371;79;28172;-72
2023/06/21 03:43:21;;;;;;;35.65;25.25;;;;;;;19.88;100.00;100351.55;1714241;82;21174;-74
2023/06/21 03:45:53;;;;;;;30.35;24.63;;;;;;;19.87;100.00;100347.09;1738995;82;21111;-72
2023/06/21 03:48:24;;;;;;;33.63;26.12;;;;;;;19.86;100.00;100348.19;1757843;82;21158;-72
2023/06/21 03:50:56;;;;;;;30.15;24.40;;;;;;;19.84;100.00;100342.60;1738674;82;21150;-72
2023/06/21 03:53:29;;;;;;;34.98;26.23;;;;;;;19.81;100.00;100345.35;1757747;82;21119;-73
2023/06/21 03:56:00;;;;;;;31.70;25.23;;;;;;;19.80;100.00;100351.17;1751449;82;21138;-72
2023/06/21 03:58:30;;;;;;;31.85;24.95;;;;;;;19.82;100.00;100353.98;1757706;81;21142;-72
2023/06/21 04:01:03;;;;;;;32.55;24.85;;;;;;;19.82;100.00;100355.92;1757643;81;21119;-74
2023/06/21 04:03:34;;;;;;;32.28;24.32;;;;;;;19.85;100.00;100359.58;1757548;80;21134;-73
2023/06/21 04:06:06;;;;;;;30.82;24.43;;;;;;;19.87;100.00;100358.22;1757884;81;21115;-72
2023/06/21 04:08:37;;;;;;;31.95;24.50;;;;;;;19.91;100.00;100369.11;1757792;82;21119;-72
2023/06/21 04:11:08;;;;;;;31.40;25.00;;;;;;;19.94;100.00;100368.59;1757608;82;21577;-72
2023/06/21 04:13:42;;;;;;;34.15;25.35;;;;;;;19.95;100.00;100369.42;1757831;81;21103;-72
2023/06/21 04:16:15;;;;;;;30.35;24.40;;;;;;;19.96;100.00;100375.28;1757731;82;21091;-71
2023/06/21 04:18:49;;;;;;;34.75;25.48;;;;;;;19.98;100.00;100378.64;1757551;80;21613;-72
2023/06/21 04:21:23;;;;;;;32.20;24.63;;;;;;;20.01;100.00;100378.67;1738562;82;21130;-70
2023/06/21 04:23:59;;;;;;;30.90;24.90;;;;;;;20.01;100.00;100382.30;1757917;81;21416;-71
2023/06/21 04:26:30;;;;;;;33.08;25.00;;;;;;;20.02;100.00;100387.30;1757929;82;21111;-72
2023/06/21 04:29:04;;;;;;;32.00;25.92;;;;;;;20.04;100.00;100394.84;1757629;82;21747;-72
2023/06/21 04:31:40;;;;;;;31.23;25.62;;;;;;;20.05;100.00;100402.09;1757911;80;21570;-72
2023/06/21 04:34:10;;;;;;;31.55;25.85;;;;;;;20.07;100.00;100404.06;1757577;81;21138;-71
2023/06/21 04:36:41;;;;;;;38.30;25.88;;;;;;;20.11;100.00;100402.44;1757934;81;21119;-72
2023/06/21 04:39:12;;;;;;;32.55;25.12;;;;;;;20.13;99.99;100400.23;1676657;85;21166;-72
2023/06/21 04:41:42;;;;;;;31.62;25.80;;;;;;;20.15;99.75;100403.05;1676260;85;21134;-72
2023/06/21 04:44:16;;;;;;;32.78;24.60;;;;;;;20.18;99.67;100410.90;1622415;87;21652;-72
2023/06/21 04:46:47;;;;;;;35.68;25.45;;;;;;;20.25;99.63;100407.91;1583020;91;21256;-70
2023/06/21 04:49:19;;;;;;;35.15;26.62;;;;;;;20.29;99.45;100414.64;1583142;89;21166;-72
2023/06/21 04:51:57;;;;;;;32.17;25.12;;;;;;;20.35;99.10;100417.77;1829918;77;22114;-71
2023/06/21 04:54:29;;;;;;;36.65;26.35;;;;;;;20.36;98.79;100415.82;1788957;80;21186;-72
2023/06/21 04:56:58;;;;;;;32.40;25.52;;;;;;;20.38;98.44;100408.89;1788565;79;21134;-71
2023/06/21 04:59:27;;;;;;;32.73;25.23;;;;;;;20.42;98.15;100410.08;1788599;80;21592;-71
2023/06/21 05:01:56;;;;;;;33.88;25.72;;;;;;;20.44;97.76;100409.81;1788621;80;21614;-71
2023/06/21 05:04:25;;;;;;;33.13;26.12;;;;;;;20.50;97.74;100408.77;1788658;80;21142;-73
2023/06/21 05:06:56;;;;;;;33.02;26.15;;;;;;;20.54;97.25;100403.80;1788841;80;21173;-72
2023/06/21 05:09:25;;;;;;;36.83;26.75;;;;;;;20.62;97.46;100405.81;1788533;80;21103;-71
2023/06/21 05:11:56;;;;;;;37.23;27.75;;;;;;;20.74;97.23;100406.48;1789055;80;21581;-71
2023/06/21 05:14:26;;;;;;;33.02;26.90;;;;;;;20.81;96.53;100399.63;1788872;80;21138;-71
2023/06/21 05:16:55;;;;;;;36.73;27.17;;;;;;;20.87;95.49;100400.50;1788762;80;21538;-71
2023/06/21 05:19:23;;;;;;;33.92;26.10;;;;;;;20.93;94.96;100397.20;1788581;80;21126;-70
2023/06/21 05:21:52;;;;;;;36.68;27.90;;;;;;;21.00;94.61;100407.02;1788772;80;21166;-71
2023/06/21 05:24:21;;;;;;;38.58;28.00;;;;;;;21.05;94.10;100406.22;1788680;80;21611;-70
2023/06/21 05:26:51;;;;;;;37.70;28.00;;;;;;;21.14;93.91;100407.41;1788782;80;21170;-70
2023/06/21 05:29:20;;;;;;;33.70;27.17;;;;;;;21.23;93.67;100412.80;1788924;80;21162;-71
2023/06/21 05:31:49;;;;;;;34.13;27.70;;;;;;;21.31;92.94;100413.69;1788480;80;21538;-71
2023/06/21 05:34:18;;;;;;;34.05;26.02;;;;;;;21.42;92.77;100421.56;1788579;80;21127;-72
2023/06/21 05:36:47;;;;;;;34.90;27.13;;;;;;;21.57;91.66;100417.50;1788464;80;21588;-70
2023/06/21 05:39:16;;;;;;;39.98;28.05;;;;;;;21.68;90.43;100419.80;1788587;80;21068;-70
2023/06/21 05:41:45;;;;;;;35.13;27.45;;;;;;;21.75;89.28;100421.78;1788289;80;21135;-70
2023/06/21 05:44:16;;;;;;;36.08;27.50;;;;;;;21.77;88.25;100428.77;1788611;80;21151;-70
2023/06/21 05:46:45;;;;;;;34.95;27.20;;;;;;;21.84;87.74;100427.13;1788534;79;21099;-71
2023/06/21 05:49:20;;;;;;;35.60;27.22;;;;;;;21.94;87.66;100424.95;1788653;80;21687;-69
2023/06/21 05:51:49;;;;;;;35.80;27.85;;;;;;;22.08;86.08;100414.98;1788715;80;21598;-71
2023/06/21 05:54:18;;;;;;;37.50;27.60;;;;;;;22.21;85.92;100419.25;1788834;80;21202;-70
2023/06/21 05:56:49;;;;;;;34.75;27.10;;;;;;;22.38;85.92;100421.25;1788894;79;21099;-70
2023/06/21 05:59:18;;;;;;;39.40;27.40;;;;;;;22.59;84.34;100424.92;1788732;80;21143;-70
2023/06/21 06:01:49;;;;;;;39.80;27.00;;;;;;;22.76;81.68;100422.19;1788645;79;21558;-71
2023/06/21 06:04:19;;;;;;;47.93;28.87;;;;;;;22.91;80.73;100429.77;1788397;80;21103;-70
2023/06/21 06:06:50;;;;;;;37.90;27.60;;;;;;;23.12;81.10;100432.56;1788355;80;21250;-70
2023/06/21 06:09:19;;;;;;;41.55;28.35;;;;;;;23.32;78.05;100429.75;1788273;80;21150;-69
2023/06/21 06:11:50;;;;;;;79.90;34.67;;;;;;;23.50;78.30;100431.16;1788191;79;21135;-71
2023/06/21 06:14:21;;;;;;;37.78;26.87;;;;;;;23.68;75.50;100420.80;1788291;79;21100;-71
2023/06/21 06:16:51;;;;;;;33.78;27.13;;;;;;;23.90;75.71;100438.62;1788174;80;21147;-69
2023/06/21 06:19:20;;;;;;;33.83;26.68;;;;;;;24.08;73.57;100426.84;1788224;80;21544;-71
2023/06/21 06:21:49;;;;;;;36.55;26.30;;;;;;;24.15;73.28;100434.36;1788062;80;21107;-71
2023/06/21 06:24:20;;;;;;;31.15;26.25;;;;;;;24.22;73.27;100432.09;1788428;80;21636;-70
2023/06/21 06:26:50;;;;;;;35.17;27.45;;;;;;;24.20;71.32;100428.73;1788260;80;21106;-71
2023/06/21 06:29:19;;;;;;;32.25;25.27;;;;;;;24.12;71.88;100420.94;1788269;80;21111;-72
2023/06/21 06:31:48;;;;;;;30.77;25.92;;;;;;;24.17;71.42;100431.27;1788374;80;21146;-71
2023/06/21 06:34:19;;;;;;;33.35;25.10;;;;;;;24.23;71.08;100427.33;1788340;80;21234;-71
2023/06/21 06:36:51;;;;;;;33.23;25.65;;;;;;;24.30;70.08;100420.31;1788232;80;21103;-70
2023/06/21 06:39:23;;;;;;;33.58;24.98;;;;;;;24.38;70.09;100419.44;1785869;79;21620;-71
2023/06/21 06:41:53;;;;;;;34.95;26.42;;;;;;;24.49;69.99;100427.48;1770998;80;21562;-69
2023/06/21 06:44:22;;;;;;;29.12;24.02;;;;;;;24.62;69.54;100424.60;1788315;80;21142;-69
2023/06/21 06:46:51;;;;;;;31.10;25.15;;;;;;;24.73;68.85;100417.83;1788391;80;21075;-69
2023/06/21 06:49:20;;;;;;;33.60;24.55;;;;;;;24.83;68.85;100420.56;1788404;80;21169;-69
2023/06/21 06:51:50;;;;;;;28.45;23.18;;;;;;;24.94;68.07;100422.15;1767321;80;21539;-70
2023/06/21 06:54:20;;;;;;;27.15;22.17;;;;;;;25.09;67.34;100427.39;1785090;80;21107;-71
2023/06/21 06:56:49;;;;;;;31.87;23.67;;;;;;;25.37;66.01;100427.16;1784951;79;21091;-71
2023/06/21 06:59:19;;;;;;;29.55;24.00;;;;;;;25.58;64.87;100428.62;1785125;79;21103;-71
2023/06/21 07:01:48;;;;;;;25.92;22.30;;;;;;;25.82;64.07;100432.89;1785013;80;21597;-72
2023/06/21 07:04:17;;;;;;;23.90;21.37;;;;;;;26.15;63.41;100436.72;1784963;80;21151;-71
2023/06/21 07:06:47;;;;;;;26.82;23.15;;;;;;;26.47;62.32;100445.30;1784919;80;21178;-69
2023/06/21 07:09:16;;;;;;;31.15;23.73;;;;;;;26.74;60.87;100441.85;1784972;80;21143;-70
2023/06/21 07:11:46;;;;;;;30.80;24.23;;;;;;;26.95;59.52;100442.94;1765476;80;21115;-69
2023/06/21 07:14:15;;;;;;;26.77;21.05;;;;;;;27.19;59.24;100440.04;1785129;80;21498;-70
2023/06/21 07:16:47;;;;;;;29.75;20.60;;;;;;;27.30;57.08;100444.34;1785097;79;21143;-69
2023/06/21 07:19:18;;;;;;;26.57;23.10;;;;;;;27.25;56.03;100447.25;1766161;80;21143;-70
2023/06/21 07:21:47;;;;;;;30.08;22.98;;;;;;;27.41;56.84;100443.89;1784968;80;21115;-70
2023/06/21 07:24:17;;;;;;;24.40;19.45;;;;;;;27.41;56.84;100443.89;1784963;79;21099;-72
2023/06/21 07:26:47;;;;;;;28.70;18.65;;;;;;;27.48;55.02;100451.36;1784909;80;21479;-70
2023/06/21 07:29:16;;;;;;;22.75;18.82;;;;;;;27.56;53.63;100452.62;1785163;80;21103;-70
2023/06/21 07:31:45;;;;;;;27.25;19.92;;;;;;;27.58;53.92;100449.50;1785126;79;21562;-71
2023/06/21 07:34:15;;;;;;;26.00;19.27;;;;;;;27.58;53.99;100443.87;1784956;79;21072;-70
2023/06/21 07:36:44;;;;;;;20.43;17.17;;;;;;;27.58;54.09;100441.05;1784982;79;21091;-70
2023/06/21 07:39:15;;;;;;;20.82;17.32;;;;;;;27.75;53.97;100446.95;1785106;80;21546;-67
2023/06/21 07:41:44;;;;;;;18.80;16.82;;;;;;;27.98;51.66;100449.34;1784863;79;21538;-70
2023/06/21 07:44:14;;;;;;;24.70;18.07;;;;;;;28.13;51.52;100451.01;1766011;80;21570;-71
2023/06/21 07:46:43;;;;;;;20.88;18.23;;;;;;;28.36;50.94;100458.43;1785186;80;21142;-71
2023/06/21 07:49:13;;;;;;;19.62;17.48;;;;;;;28.48;50.51;100453.09;1785043;80;21202;-70
2023/06/21 07:51:43;;;;;;;21.65;17.92;;;;;;;28.50;50.05;100453.60;1745662;80;21542;-71
2023/06/21 07:54:13;;;;;;;21.42;17.65;;;;;;;28.50;49.50;100452.20;1749556;79;21125;-70
2023/06/21 07:56:42;;;;;;;31.00;19.48;;;;;;;28.43;49.13;100453.20;1769692;81;21119;-70
2023/06/21 07:59:13;;;;;;;19.87;17.02;;;;;;;28.44;48.26;100457.69;1760726;81;21579;-71
2023/06/21 08:01:45;;;;;;;20.02;16.27;;;;;;;28.54;48.47;100458.03;1754249;81;21175;-65
2023/06/21 08:04:16;;;;;;;18.02;16.10;;;;;;;28.59;47.87;100446.06;1706609;84;21207;-68
2023/06/21 08:06:46;;;;;;;19.57;16.50;;;;;;;28.70;47.75;100443.30;1772625;80;21453;-70
2023/06/21 08:09:17;;;;;;;17.32;14.10;;;;;;;28.77;48.25;100442.86;1772719;81;21112;-67
2023/06/21 08:11:48;;;;;;;16.75;13.98;;;;;;;28.94;47.86;100443.04;1744822;81;21272;-67
2023/06/21 08:14:18;;;;;;;17.07;15.38;;;;;;;29.27;47.07;100447.05;1743958;81;21438;-67
2023/06/21 08:16:47;;;;;;;16.20;14.28;;;;;;;29.65;46.24;100441.83;1743786;82;21121;-67
2023/06/21 08:19:16;;;;;;;16.15;12.75;;;;;;;29.77;45.15;100436.98;1743927;82;21188;-68
2023/06/21 08:21:46;;;;;;;16.55;12.47;;;;;;;29.75;44.20;100438.72;1743926;82;21113;-66
2023/06/21 08:24:15;;;;;;;14.68;11.85;;;;;;;29.69;44.75;100442.84;1743601;81;21124;-67
2023/06/21 08:26:44;;;;;;;14.15;12.10;;;;;;;29.68;43.14;100438.36;1746746;81;21145;-73
2023/06/21 08:29:13;;;;;;;11.25;9.83;;;;;;;29.61;42.50;100443.06;1772782;81;21592;-72
2023/06/21 08:31:43;;;;;;;12.63;11.33;;;;;;;29.72;41.43;100442.77;1772719;81;21110;-71
2023/06/21 08:34:13;;;;;;;12.45;11.15;;;;;;;29.87;42.25;100443.18;1772772;81;21131;-72
2023/06/21 08:36:43;;;;;;;11.85;10.65;;;;;;;30.03;42.27;100441.39;1751048;81;21111;-71
2023/06/21 08:39:12;;;;;;;11.50;10.30;;;;;;;30.17;39.38;100444.92;1706521;84;21179;-70
2023/06/21 08:41:41;;;;;;;16.73;11.95;;;;;;;30.18;40.06;100444.60;1772746;81;21873;-73
2023/06/21 08:44:10;;;;;;;14.13;11.93;;;;;;;30.10;40.60;100444.58;1725677;81;21616;-70
2023/06/21 08:46:39;;;;;;;13.72;10.58;;;;;;;29.87;40.45;100440.94;1706495;84;21107;-71
2023/06/21 08:49:08;;;;;;;11.38;10.20;;;;;;;29.80;40.83;100447.63;1772747;81;21166;-72
2023/06/21 08:51:37;;;;;;;16.75;10.82;;;;;;;29.89;40.21;100446.52;1775707;80;21103;-70
2023/06/21 08:54:08;;;;;;;12.28;10.48;;;;;;;29.87;39.90;100450.82;1780887;80;21119;-70
2023/06/21 08:56:56;;;;;;;11.33;10.15;;;;;;;29.89;40.60;100449.91;1780688;80;21146;-71
2023/06/21 08:59:33;;;;;;;15.18;11.00;;;;;;;29.97;39.68;100444.33;1714306;84;21606;-70
2023/06/21 09:02:31;;;;;;;13.00;10.20;;;;;;;30.14;39.39;100446.42;1761981;80;21156;-71
2023/06/21 09:05:05;;;;;;;11.53;10.20;;;;;;;30.19;39.51;100438.37;1678360;85;21230;-69
2023/06/21 09:07:35;;;;;;;12.68;10.25;;;;;;;30.27;38.63;100441.22;1678269;84;21110;-71
2023/06/21 09:10:07;;;;;;;12.35;9.43;;;;;;;30.24;38.59;100441.05;1710434;81;21125;-68
2023/06/21 09:12:38;;;;;;;10.50;9.40;;;;;;;30.24;37.77;100438.22;1733330;82;21203;-71
2023/06/21 09:15:09;;;;;;;11.45;10.15;;;;;;;30.28;37.89;100434.98;1751648;80;21093;-72
2023/06/21 09:17:38;;;;;;;13.53;9.88;;;;;;;30.31;37.86;100439.15;1751533;81;21590;-70
2023/06/21 09:20:09;;;;;;;11.22;10.03;;;;;;;30.31;37.46;100442.81;1751505;82;21154;-72
2023/06/21 09:22:39;;;;;;;11.25;9.65;;;;;;;30.22;37.33;100434.89;1751482;80;21200;-70
2023/06/21 09:25:08;;;;;;;11.15;9.53;;;;;;;30.07;38.02;100438.16;1751491;82;21156;-70
2023/06/21 09:27:38;;;;;;;10.60;9.38;;;;;;;29.91;37.68;100430.09;1751623;80;21129;-70
2023/06/21 09:30:09;;;;;;;11.00;9.18;;;;;;;29.64;37.97;100435.34;1751648;80;21591;-70
2023/06/21 09:32:42;;;;;;;11.88;9.28;;;;;;;29.46;38.09;100428.52;1749098;80;21132;-71
2023/06/21 09:35:13;;;;;;;12.20;9.53;;;;;;;29.38;38.83;100432.09;1751795;82;21161;-70
2023/06/21 09:37:42;;;;;;;10.65;8.90;;;;;;;29.27;38.18;100431.52;1733040;81;21209;-70
2023/06/21 09:40:13;;;;;;;10.65;8.63;;;;;;;29.14;38.12;100442.27;1751601;82;21124;-69
2023/06/21 09:42:43;;;;;;;13.10;10.08;;;;;;;29.08;38.38;100440.16;1751695;82;21520;-70
2023/06/21 09:45:15;;;;;;;10.50;9.13;;;;;;;29.07;38.39;100438.49;1751747;80;21125;-71
2023/06/21 09:47:44;;;;;;;9.93;8.80;;;;;;;29.06;37.56;100429.77;1751757;81;21156;-70
2023/06/21 09:50:13;;;;;;;12.85;9.33;;;;;;;28.92;37.90;100427.01;1751648;80;21629;-69
2023/06/21 09:52:45;;;;;;;13.35;9.35;;;;;;;28.86;38.41;100425.47;1751428;81;21168;-71
2023/06/21 09:55:15;;;;;;;11.40;9.38;;;;;;;28.81;38.34;100426.97;1751842;80;21175;-71
2023/06/21 09:57:45;;;;;;;11.08;9.58;;;;;;;28.73;38.41;100417.86;1751941;80;21125;-72
2023/06/21 10:00:17;;;;;;;11.63;9.70;;;;;;;28.62;39.26;100422.91;1733266;82;21172;-71
2023/06/21 10:02:46;;;;;;;12.68;9.90;;;;;;;28.55;39.61;100427.28;1775056;81;21119;-70
2023/06/21 10:05:18;;;;;;;11.00;9.90;;;;;;;28.45;39.40;100422.71;1711953;84;21123;-71
2023/06/21 10:07:47;;;;;;;11.50;9.63;;;;;;;28.40;40.03;100423.66;1778417;81;21154;-68
2023/06/21 10:10:19;;;;;;;13.98;10.40;;;;;;;28.37;40.17;100429.09;1662702;84;21167;-70
2023/06/21 10:12:53;;;;;;;16.25;10.23;;;;;;;28.31;40.20;100424.14;1778193;80;21612;-71
2023/06/21 10:15:24;;;;;;;11.50;10.30;;;;;;;28.26;40.85;100416.37;1778358;81;21115;-70
2023/06/21 10:17:53;;;;;;;11.08;9.98;;;;;;;28.18;40.39;100415.11;1711948;84;21159;-70
2023/06/21 10:20:24;;;;;;;11.95;9.80;;;;;;;28.13;40.62;100417.20;1778459;81;21175;-70
2023/06/21 10:22:55;;;;;;;24.95;10.90;;;;;;;28.08;40.08;100417.56;1748841;81;21626;-70
2023/06/21 10:25:24;;;;;;;11.65;8.85;;;;;;;28.02;40.22;100406.72;1778389;81;21181;-70
2023/06/21 10:27:54;;;;;;;11.73;9.40;;;;;;;27.86;38.57;100411.80;1684495;84;21158;-70
2023/06/21 10:30:23;;;;;;;11.43;9.98;;;;;;;27.68;39.60;100414.98;1711799;84;21198;-69
2023/06/21 10:32:53;;;;;;;12.30;8.43;;;;;;;27.69;40.37;100413.83;1711914;84;21671;-68
2023/06/21 10:35:23;;;;;;;9.60;8.60;;;;;;;27.75;38.97;100412.58;1778256;81;21135;-69
2023/06/21 10:38:17;;;;;;;11.43;9.40;;;;;;;27.91;39.81;100410.30;1778278;80;21142;-70
2023/06/21 10:40:46;;;;;;;13.00;10.40;;;;;;;27.91;39.81;100410.30;1777901;80;21154;-71
2023/06/21 10:43:15;;;;;;;11.70;9.45;;;;;;;28.09;39.68;100403.74;1778603;81;21128;-70
2023/06/21 10:45:44;;;;;;;11.12;8.40;;;;;;;28.09;39.68;100403.74;1778366;81;21139;-71
2023/06/21 10:48:13;;;;;;;11.20;9.15;;;;;;;28.20;39.05;100407.17;1778201;81;21566;-71
2023/06/21 10:50:45;;;;;;;11.22;9.48;;;;;;;28.12;38.33;100393.83;1778179;81;21115;-69
2023/06/21 10:53:17;;;;;;;15.53;9.93;;;;;;;28.12;38.33;100393.83;1713462;84;21602;-71
2023/06/21 10:55:49;;;;;;;9.13;6.22;;;;;;;28.02;39.39;100401.92;1781039;80;21166;-71
2023/06/21 10:58:19;;;;;;;10.38;7.70;;;;;;;27.95;36.35;100391.62;1751526;80;21270;-70
2023/06/21 11:00:48;;;;;;;11.03;9.25;;;;;;;27.95;36.35;100391.62;1712334;83;21198;-68
2023/06/21 11:03:24;;;;;;;12.20;9.45;;;;;;;27.95;38.09;100393.03;1713640;81;21181;-68
2023/06/21 11:05:50;;;;;;;11.20;9.23;;;;;;;27.95;38.52;100389.37;1764206;80;21145;-69
2023/06/21 11:08:22;;;;;;;12.23;9.18;;;;;;;28.01;38.09;100381.94;1737602;81;21173;-68
2023/06/21 11:10:53;;;;;;;11.05;8.90;;;;;;;28.04;39.05;100388.93;1713821;81;21173;-69
2023/06/21 11:13:37;;;;;;;13.58;10.65;;;;;;;28.06;38.75;100386.05;1764722;80;21111;-67
2023/06/21 11:16:16;;;;;;;16.23;10.68;;;;;;;28.07;39.48;100383.50;1764368;81;21130;-68
2023/06/21 11:18:59;;;;;;;13.28;10.40;;;;;;;28.09;40.02;100386.84;1764188;80;21154;-70
2023/06/21 11:21:47;;;;;;;12.50;9.70;;;;;;;28.13;39.93;100386.20;1764578;81;21129;-68
2023/06/21 11:24:19;;;;;;;12.05;9.73;;;;;;;28.19;38.75;100404.67;1764379;81;21154;-69
2023/06/21 11:27:01;;;;;;;13.43;10.95;;;;;;;28.19;38.75;100404.67;1736905;81;21565;-67
2023/06/21 11:29:40;;;;;;;12.70;10.40;;;;;;;28.15;39.48;100392.36;1737934;81;21154;-67
2023/06/21 11:32:14;;;;;;;12.50;10.18;;;;;;;28.06;39.58;100393.67;1764661;81;21581;-67
2023/06/21 11:34:58;;;;;;;10.85;9.60;;;;;;;27.98;40.20;100388.20;1764468;81;21090;-70
2023/06/21 11:37:40;;;;;;;12.07;8.80;;;;;;;28.01;38.14;100385.34;1764728;80;21444;-68